Time;durP1;ratioP1;P1;durP2;ratioP2;P2;SDS_P1;SDS_P2;PMS_P1;PMS_P2;Temp;Humidity;BMP_temperature;BMP_pressure;BME280_temperature;BME280_humidity;BME280_pressure;Samples;Min_cycle;Max_cycle;Signal;HPM_P1;HPM_P2
2023/08/10 00:02:22;;;;;;;1.93;1.63;;;11.60;99.90;;;;;;5073685;28;21015;-78
2023/08/10 00:04:51;;;;;;;3.57;1.97;;;11.60;99.90;;;;;;5081140;28;20579;-78
2023/08/10 00:07:19;;;;;;;6.07;3.03;;;11.60;99.90;;;;;;5076972;28;20464;-80
2023/08/10 00:09:46;;;;;;;6.40;2.80;;;11.90;99.90;;;;;;5073919;28;20532;-83
2023/08/10 00:12:13;;;;;;;1.97;1.80;;;12.00;99.90;;;;;;5076046;28;20444;-80
2023/08/10 00:14:40;;;;;;;2.03;1.93;;;12.10;99.90;;;;;;5080321;28;20458;-78
2023/08/10 00:17:07;;;;;;;2.60;1.23;;;12.20;99.90;;;;;;5080780;28;20908;-79
2023/08/10 00:19:34;;;;;;;2.50;1.90;;;12.20;99.90;;;;;;5085519;28;20455;-83
2023/08/10 00:22:02;;;;;;;2.90;1.33;;;12.20;99.90;;;;;;5084834;28;20863;-81
2023/08/10 00:24:29;;;;;;;1.97;1.80;;;12.20;99.90;;;;;;5073799;28;20463;-79
2023/08/10 00:26:56;;;;;;;2.20;2.00;;;12.10;99.90;;;;;;5073497;28;20453;-79
2023/08/10 00:29:23;;;;;;;2.10;1.70;;;12.10;99.90;;;;;;5071119;28;20491;-79
2023/08/10 00:31:50;;;;;;;1.40;1.30;;;12.10;99.90;;;;;;5078176;28;21056;-79
2023/08/10 00:34:17;;;;;;;2.57;1.50;;;12.10;99.90;;;;;;5075486;28;20471;-79
2023/08/10 00:36:44;;;;;;;2.50;1.60;;;12.20;99.90;;;;;;5079362;28;20440;-80
2023/08/10 00:39:13;;;;;;;1.63;1.50;;;12.10;99.90;;;;;;5079040;28;20500;-80
2023/08/10 00:41:41;;;;;;;1.53;1.33;;;12.00;99.90;;;;;;5082926;28;20448;-77
2023/08/10 00:44:08;;;;;;;2.50;1.77;;;12.00;99.90;;;;;;5074139;28;20544;-80
2023/08/10 00:46:35;;;;;;;1.70;1.60;;;12.00;99.90;;;;;;5076747;28;20467;-78
2023/08/10 00:49:03;;;;;;;1.87;1.77;;;11.90;99.90;;;;;;5074833;28;20517;-81
2023/08/10 00:51:30;;;;;;;3.03;1.50;;;12.00;99.90;;;;;;5078124;28;20444;-78
2023/08/10 00:53:57;;;;;;;1.43;1.33;;;12.00;99.90;;;;;;5075751;28;20522;-79
2023/08/10 00:56:26;;;;;;;1.63;1.53;;;12.10;99.90;;;;;;5079642;28;21170;-82
2023/08/10 00:58:53;;;;;;;1.30;1.20;;;12.20;99.90;;;;;;5080312;28;20562;-81
2023/08/10 01:01:19;;;;;;;1.50;1.37;;;12.20;99.90;;;;;;5074788;28;20498;-79
2023/08/10 01:03:46;;;;;;;2.73;1.83;;;12.30;99.90;;;;;;5074458;28;20464;-78
2023/08/10 01:06:20;;;;;;;2.23;2.00;;;12.30;99.90;;;;;;5082642;28;21022;-79
2023/08/10 01:08:55;;;;;;;1.80;1.40;;;12.30;99.90;;;;;;5079846;28;20505;-79
2023/08/10 01:11:31;;;;;;;2.47;2.13;;;12.30;99.90;;;;;;5082417;28;20442;-79
2023/08/10 01:14:05;;;;;;;1.30;0.83;;;12.30;99.90;;;;;;5076778;28;20499;-79
2023/08/10 01:16:34;;;;;;;2.80;1.20;;;12.30;99.90;;;;;;5073276;28;20459;-79
2023/08/10 01:19:02;;;;;;;1.40;0.90;;;12.30;99.90;;;;;;5084222;28;21109;-79
2023/08/10 01:21:38;;;;;;;0.77;0.77;;;12.30;99.90;;;;;;5084614;28;20855;-78
2023/08/10 01:24:17;;;;;;;0.70;0.70;;;12.40;99.90;;;;;;5070043;28;20449;-79
2023/08/10 01:26:46;;;;;;;0.70;0.60;;;12.40;99.90;;;;;;5071651;28;20464;-82
2023/08/10 01:29:16;;;;;;;1.70;0.87;;;12.40;99.90;;;;;;5072417;28;20445;-79
2023/08/10 01:31:43;;;;;;;1.00;0.70;;;12.50;99.90;;;;;;5076358;28;20445;-79
2023/08/10 01:34:09;;;;;;;0.80;0.60;;;12.60;99.90;;;;;;5075114;28;20516;-78
2023/08/10 01:36:36;;;;;;;1.93;1.20;;;12.60;99.90;;;;;;5085129;28;20441;-78
2023/08/10 01:39:04;;;;;;;0.70;0.70;;;12.60;99.90;;;;;;5087012;28;20485;-79
2023/08/10 01:41:30;;;;;;;1.33;0.70;;;12.70;99.90;;;;;;5086677;28;20440;-80
2023/08/10 01:43:59;;;;;;;0.90;0.80;;;12.70;99.90;;;;;;5078538;28;20435;-80
2023/08/10 01:46:27;;;;;;;1.00;0.80;;;12.60;99.90;;;;;;5079461;28;20550;-80
2023/08/10 01:48:57;;;;;;;1.03;0.83;;;12.60;99.90;;;;;;5071314;28;20485;-81
2023/08/10 01:51:28;;;;;;;0.90;0.70;;;12.70;99.90;;;;;;5074789;28;20439;-82
2023/08/10 01:53:57;;;;;;;2.53;1.33;;;12.80;99.90;;;;;;5070355;28;20514;-78
2023/08/10 01:56:24;;;;;;;2.50;1.10;;;12.80;99.90;;;;;;5079993;28;20459;-77
2023/08/10 01:58:51;;;;;;;1.00;0.90;;;12.80;99.90;;;;;;5077447;28;20519;-78
2023/08/10 02:01:20;;;;;;;1.20;0.87;;;12.80;99.90;;;;;;5077048;28;20468;-81
2023/08/10 02:03:47;;;;;;;0.70;0.70;;;12.80;99.90;;;;;;5071673;28;20493;-78
2023/08/10 02:06:14;;;;;;;1.57;1.23;;;12.90;99.90;;;;;;5082231;28;20465;-80
2023/08/10 02:08:40;;;;;;;3.33;0.60;;;12.90;99.90;;;;;;5072083;28;20938;-77
2023/08/10 02:11:07;;;;;;;0.77;0.77;;;12.80;99.90;;;;;;5083612;28;20469;-81
2023/08/10 02:13:34;;;;;;;1.53;0.70;;;12.80;99.90;;;;;;5084378;28;20450;-78
2023/08/10 02:16:01;;;;;;;1.00;1.00;;;12.90;99.90;;;;;;5082070;28;20468;-76
2023/08/10 02:18:30;;;;;;;0.77;0.63;;;12.90;99.90;;;;;;5088166;28;20518;-78
2023/08/10 02:20:57;;;;;;;0.60;0.60;;;12.80;99.90;;;;;;5084225;28;20507;-78
2023/08/10 02:23:24;;;;;;;0.60;0.60;;;12.80;99.90;;;;;;5085905;28;20501;-78
2023/08/10 02:25:51;;;;;;;0.70;0.60;;;12.80;99.90;;;;;;5074801;28;20448;-81
2023/08/10 02:28:17;;;;;;;0.60;0.53;;;12.80;99.90;;;;;;5085561;28;20451;-80
2023/08/10 02:30:45;;;;;;;0.70;0.50;;;12.80;99.90;;;;;;5081104;28;21178;-78
2023/08/10 02:33:12;;;;;;;2.93;0.50;;;12.80;99.90;;;;;;5076561;28;21232;-78
2023/08/10 02:35:40;;;;;;;0.60;0.60;;;12.90;99.90;;;;;;5081616;28;20450;-78
2023/08/10 02:38:07;;;;;;;0.47;0.40;;;12.90;99.90;;;;;;5083387;28;20576;-81
2023/08/10 02:40:34;;;;;;;2.07;0.50;;;12.90;99.90;;;;;;5083171;28;21142;-78
2023/08/10 02:43:01;;;;;;;0.50;0.50;;;12.90;99.90;;;;;;5075710;28;20500;-80
2023/08/10 02:45:28;;;;;;;1.30;0.50;;;13.00;99.90;;;;;;5070326;28;20544;-78
2023/08/10 02:47:55;;;;;;;0.60;0.47;;;13.10;99.90;;;;;;5076340;28;20464;-78
2023/08/10 02:50:22;;;;;;;0.80;0.57;;;13.00;99.90;;;;;;5078372;28;20447;-78
2023/08/10 02:52:51;;;;;;;0.50;0.40;;;12.90;99.90;;;;;;5084187;28;20468;-78
2023/08/10 02:55:18;;;;;;;6.00;1.10;;;12.90;99.90;;;;;;5078876;28;20465;-78
2023/08/10 02:57:45;;;;;;;4.30;0.63;;;12.90;99.90;;;;;;5083837;28;20521;-78
2023/08/10 03:00:13;;;;;;;1.90;0.50;;;13.00;99.90;;;;;;5078259;28;20491;-78
2023/08/10 03:02:40;;;;;;;0.43;0.40;;;13.00;99.90;;;;;;5079718;28;20452;-78
2023/08/10 03:05:07;;;;;;;0.60;0.60;;;13.10;99.90;;;;;;5067231;28;20448;-79
2023/08/10 03:07:34;;;;;;;2.87;0.60;;;13.00;99.90;;;;;;5084683;28;20520;-78
2023/08/10 03:10:03;;;;;;;1.17;0.60;;;12.90;99.90;;;;;;5076085;28;20455;-77
2023/08/10 03:12:30;;;;;;;0.50;0.50;;;13.00;99.90;;;;;;5078340;28;20944;-78
2023/08/10 03:14:56;;;;;;;0.53;0.50;;;13.10;99.90;;;;;;5079967;28;20486;-80
2023/08/10 03:17:23;;;;;;;0.60;0.60;;;13.00;99.90;;;;;;5078318;28;20447;-81
2023/08/10 03:19:52;;;;;;;0.43;0.40;;;12.90;99.90;;;;;;5081081;28;20488;-78
2023/08/10 03:22:19;;;;;;;3.90;1.13;;;12.90;99.90;;;;;;5080105;28;20707;-80
2023/08/10 03:24:46;;;;;;;1.37;0.97;;;12.90;99.90;;;;;;5078563;28;20441;-78
2023/08/10 03:27:14;;;;;;;0.50;0.50;;;12.90;99.90;;;;;;5076157;28;20447;-78
2023/08/10 03:29:41;;;;;;;0.67;0.50;;;13.00;99.90;;;;;;5081960;28;21031;-78
2023/08/10 03:32:08;;;;;;;2.10;0.40;;;13.10;99.90;;;;;;5084222;28;20471;-78
2023/08/10 03:34:35;;;;;;;0.60;0.60;;;13.10;99.90;;;;;;5081089;28;20523;-78
2023/08/10 03:37:03;;;;;;;0.77;0.70;;;13.10;99.90;;;;;;5084504;28;20441;-78
2023/08/10 03:39:30;;;;;;;0.87;0.60;;;12.90;99.90;;;;;;5072338;28;20487;-82
2023/08/10 03:41:57;;;;;;;0.90;0.77;;;12.90;99.90;;;;;;5070102;28;20926;-79
2023/08/10 03:44:26;;;;;;;0.40;0.40;;;12.80;99.90;;;;;;5076357;28;20497;-79
2023/08/10 03:46:53;;;;;;;0.63;0.50;;;12.90;99.90;;;;;;5077584;28;20463;-80
2023/08/10 03:49:22;;;;;;;0.60;0.40;;;12.90;99.90;;;;;;5085089;28;20490;-79
2023/08/10 03:51:50;;;;;;;0.50;0.50;;;12.90;99.90;;;;;;5079787;28;20548;-79
2023/08/10 03:54:17;;;;;;;0.60;0.50;;;13.00;99.90;;;;;;5078019;28;20461;-78
2023/08/10 03:56:44;;;;;;;0.73;0.50;;;12.90;99.90;;;;;;5068613;28;20432;-81
2023/08/10 03:59:11;;;;;;;0.50;0.40;;;12.90;99.90;;;;;;5086131;28;20486;-80
2023/08/10 04:01:40;;;;;;;0.60;0.53;;;13.00;99.90;;;;;;5081787;28;20540;-78
2023/08/10 04:04:08;;;;;;;0.77;0.67;;;13.10;99.90;;;;;;5079564;28;20718;-80
2023/08/10 04:06:36;;;;;;;0.60;0.40;;;13.20;99.90;;;;;;5081794;28;21092;-78
2023/08/10 04:09:04;;;;;;;1.10;0.90;;;13.30;99.90;;;;;;5083896;28;20484;-80
2023/08/10 04:11:31;;;;;;;0.70;0.70;;;13.30;99.90;;;;;;5082900;28;20843;-78
2023/08/10 04:13:58;;;;;;;0.50;0.47;;;13.30;99.90;;;;;;5073657;28;20860;-79
2023/08/10 04:16:26;;;;;;;0.87;0.50;;;13.30;99.90;;;;;;5076421;28;20495;-78
2023/08/10 04:18:54;;;;;;;0.60;0.50;;;13.30;99.90;;;;;;5086068;28;20611;-78
2023/08/10 04:21:21;;;;;;;1.07;0.70;;;13.30;99.90;;;;;;5079449;28;20443;-80
2023/08/10 04:23:48;;;;;;;1.93;0.63;;;13.20;99.90;;;;;;5074982;28;20494;-80
2023/08/10 04:26:15;;;;;;;0.70;0.60;;;13.20;99.90;;;;;;5073187;28;20479;-78
2023/08/10 04:28:42;;;;;;;1.40;0.60;;;13.20;99.90;;;;;;5082813;28;20516;-80
2023/08/10 04:31:09;;;;;;;0.50;0.50;;;13.30;99.90;;;;;;5078265;28;20488;-80
2023/08/10 04:33:37;;;;;;;0.60;0.50;;;13.30;99.90;;;;;;5077601;28;20443;-78
2023/08/10 04:36:07;;;;;;;0.53;0.50;;;13.30;99.90;;;;;;5071248;28;20467;-79
2023/08/10 04:38:34;;;;;;;0.60;0.50;;;13.40;99.90;;;;;;5076957;28;20452;-78
2023/08/10 04:41:01;;;;;;;0.60;0.60;;;13.50;99.90;;;;;;5078680;28;20546;-80
2023/08/10 04:43:28;;;;;;;1.07;0.60;;;13.50;99.90;;;;;;5076563;28;20464;-78
2023/08/10 04:45:55;;;;;;;0.50;0.50;;;13.50;99.90;;;;;;5073698;28;20499;-78
2023/08/10 04:48:22;;;;;;;0.57;0.50;;;13.50;99.90;;;;;;5078829;28;20492;-78
2023/08/10 04:50:49;;;;;;;0.90;0.60;;;13.50;99.90;;;;;;5083800;28;20508;-79
2023/08/10 04:53:17;;;;;;;1.33;0.70;;;13.40;99.90;;;;;;5082467;28;20490;-79
2023/08/10 04:55:44;;;;;;;1.63;0.67;;;13.50;99.90;;;;;;5081109;28;20514;-77
2023/08/10 04:58:11;;;;;;;0.90;0.53;;;13.60;99.90;;;;;;5082789;28;20491;-79
2023/08/10 05:00:38;;;;;;;0.50;0.40;;;13.60;99.90;;;;;;5068401;28;20503;-78
2023/08/10 05:03:05;;;;;;;0.50;0.50;;;13.60;99.90;;;;;;5073898;28;20554;-80
2023/08/10 05:05:32;;;;;;;1.33;0.60;;;13.50;99.90;;;;;;5076866;28;20443;-77
2023/08/10 05:07:59;;;;;;;0.60;0.50;;;13.70;99.90;;;;;;5073105;28;20472;-78
2023/08/10 05:10:27;;;;;;;1.93;0.60;;;13.70;99.90;;;;;;5079587;28;20521;-76
2023/08/10 05:12:55;;;;;;;0.57;0.50;;;13.70;99.90;;;;;;5080117;28;21046;-78
2023/08/10 05:15:22;;;;;;;0.60;0.40;;;13.90;99.90;;;;;;5075667;28;20519;-80
2023/08/10 05:17:49;;;;;;;0.73;0.70;;;14.00;99.90;;;;;;5076800;28;20490;-79
2023/08/10 05:20:15;;;;;;;0.70;0.60;;;14.10;99.90;;;;;;5077108;28;20570;-78
2023/08/10 05:22:43;;;;;;;0.50;0.40;;;14.10;99.90;;;;;;5079423;28;20513;-77
2023/08/10 05:25:11;;;;;;;0.50;0.40;;;14.20;99.90;;;;;;5074855;28;20840;-80
2023/08/10 05:27:38;;;;;;;0.70;0.70;;;14.20;99.90;;;;;;5081635;28;20467;-79
2023/08/10 05:30:11;;;;;;;0.90;0.50;;;14.40;99.90;;;;;;5080752;28;20471;-77
2023/08/10 05:32:39;;;;;;;1.17;0.50;;;14.40;99.90;;;;;;5080957;28;20442;-77
2023/08/10 05:35:07;;;;;;;1.37;0.60;;;14.70;99.90;;;;;;5076477;28;20498;-79
2023/08/10 05:37:34;;;;;;;1.20;0.80;;;15.00;99.90;;;;;;5077044;28;20443;-78
2023/08/10 05:40:01;;;;;;;0.83;0.70;;;15.20;99.90;;;;;;5079475;28;21127;-78
2023/08/10 05:42:28;;;;;;;1.73;1.63;;;15.40;99.90;;;;;;5078747;28;20440;-77
2023/08/10 05:44:56;;;;;;;0.80;0.50;;;15.40;99.90;;;;;;5068934;28;20525;-78
2023/08/10 05:47:23;;;;;;;1.00;0.60;;;15.40;99.90;;;;;;5080569;28;20462;-77
2023/08/10 05:49:50;;;;;;;0.63;0.63;;;15.60;99.90;;;;;;5075366;28;20447;-77
2023/08/10 05:52:17;;;;;;;1.00;0.80;;;15.70;99.90;;;;;;5073352;28;20492;-77
2023/08/10 05:54:44;;;;;;;0.60;0.60;;;15.50;99.90;;;;;;5075211;28;20461;-77
2023/08/10 05:57:11;;;;;;;0.60;0.50;;;15.20;99.90;;;;;;5086359;28;20477;-77
2023/08/10 05:59:38;;;;;;;0.70;0.50;;;15.40;99.90;;;;;;5071894;28;20606;-76
2023/08/10 06:02:08;;;;;;;3.93;0.67;;;15.30;99.90;;;;;;5080888;28;21164;-77
2023/08/10 06:04:35;;;;;;;1.23;0.60;;;15.40;99.90;;;;;;5078147;28;20833;-77
2023/08/10 06:07:02;;;;;;;0.60;0.50;;;15.40;99.90;;;;;;5077538;28;20469;-80
2023/08/10 06:09:29;;;;;;;0.70;0.70;;;15.50;99.90;;;;;;5075518;28;20476;-77
2023/08/10 06:11:56;;;;;;;1.23;0.50;;;15.60;99.90;;;;;;5083524;28;20454;-77
2023/08/10 06:14:24;;;;;;;0.60;0.50;;;15.70;99.90;;;;;;5071761;28;21003;-77
2023/08/10 06:16:51;;;;;;;0.90;0.70;;;15.80;99.90;;;;;;5071196;28;20547;-77
2023/08/10 06:19:20;;;;;;;0.80;0.60;;;15.70;99.90;;;;;;5078890;28;20492;-76
2023/08/10 06:21:47;;;;;;;2.77;0.80;;;15.60;99.90;;;;;;5074711;28;20472;-77
2023/08/10 06:24:16;;;;;;;1.33;1.00;;;15.50;99.90;;;;;;5068166;28;20436;-79
2023/08/10 06:26:43;;;;;;;2.63;0.70;;;15.80;99.90;;;;;;5077301;28;20476;-76
2023/08/10 06:29:10;;;;;;;0.80;0.53;;;15.80;99.90;;;;;;5067960;28;20458;-79
2023/08/10 06:31:37;;;;;;;1.03;0.90;;;15.70;99.90;;;;;;5073952;28;20440;-77
2023/08/10 06:34:05;;;;;;;2.07;0.80;;;15.70;99.90;;;;;;5072976;28;21312;-77
2023/08/10 06:36:34;;;;;;;0.70;0.50;;;15.80;99.90;;;;;;5071065;28;20497;-77
2023/08/10 06:39:03;;;;;;;1.67;0.67;;;15.90;99.90;;;;;;5077039;28;20440;-77
2023/08/10 06:41:31;;;;;;;0.77;0.63;;;16.00;99.90;;;;;;5073340;28;21002;-77
2023/08/10 06:43:58;;;;;;;1.00;0.90;;;16.10;99.90;;;;;;5079043;28;20536;-77
2023/08/10 06:46:25;;;;;;;1.40;1.30;;;16.30;99.90;;;;;;5071990;28;20545;-79
2023/08/10 06:48:52;;;;;;;2.60;2.40;;;16.20;99.90;;;;;;5076308;28;20537;-77
2023/08/10 06:51:19;;;;;;;2.57;2.07;;;16.30;99.90;;;;;;5074276;28;20553;-75
2023/08/10 06:53:48;;;;;;;2.40;2.07;;;16.80;99.90;;;;;;5076256;28;20581;-75
2023/08/10 06:56:15;;;;;;;3.23;2.73;;;16.90;99.90;;;;;;5084252;28;20470;-77
2023/08/10 06:58:43;;;;;;;2.80;2.60;;;17.10;99.90;;;;;;5084041;28;20497;-76
2023/08/10 07:01:11;;;;;;;3.70;2.27;;;16.70;99.90;;;;;;5082847;28;20495;-78
2023/08/10 07:03:38;;;;;;;2.73;2.53;;;16.70;99.90;;;;;;5084926;28;20463;-76
2023/08/10 07:06:05;;;;;;;2.33;2.17;;;16.70;99.90;;;;;;5081824;28;20529;-74
2023/08/10 07:08:32;;;;;;;2.57;2.37;;;16.80;99.90;;;;;;5080939;28;20982;-73
2023/08/10 07:11:02;;;;;;;2.03;1.93;;;16.80;99.90;;;;;;5087601;28;20501;-78
2023/08/10 07:13:29;;;;;;;2.00;1.90;;;16.80;99.90;;;;;;5086622;28;20440;-76
2023/08/10 07:15:56;;;;;;;2.20;1.93;;;17.40;99.90;;;;;;5085644;28;20470;-76
2023/08/10 07:18:23;;;;;;;2.63;2.10;;;17.50;99.90;;;;;;5086652;28;20444;-75
2023/08/10 07:20:50;;;;;;;4.70;2.30;;;17.10;99.90;;;;;;5086227;28;20908;-77
2023/08/10 07:23:20;;;;;;;2.57;2.37;;;17.00;99.90;;;;;;5083336;28;20604;-77
2023/08/10 07:25:47;;;;;;;2.10;1.90;;;17.30;99.90;;;;;;5086211;28;21070;-75
2023/08/10 07:28:15;;;;;;;3.43;3.23;;;17.70;99.90;;;;;;5083495;28;21714;-75
2023/08/10 07:30:45;;;;;;;7.40;3.20;;;17.80;99.90;;;;;;5085972;28;20449;-76
2023/08/10 07:33:12;;;;;;;2.87;2.67;;;17.50;99.90;;;;;;5086364;28;20521;-77
2023/08/10 07:35:39;;;;;;;2.60;2.40;;;17.40;99.90;;;;;;5085729;28;20479;-75
2023/08/10 07:38:07;;;;;;;2.60;2.40;;;17.20;99.90;;;;;;5083054;28;20464;-76
2023/08/10 07:40:33;;;;;;;3.43;2.63;;;17.20;99.90;;;;;;5086414;28;20495;-78
2023/08/10 07:43:00;;;;;;;2.23;2.00;;;17.60;99.90;;;;;;5083226;28;20513;-76
2023/08/10 07:45:29;;;;;;;2.43;2.27;;;17.90;99.90;;;;;;5078799;28;20506;-76
2023/08/10 07:47:56;;;;;;;2.23;2.13;;;18.00;99.90;;;;;;5076023;28;20561;-79
2023/08/10 07:50:23;;;;;;;4.93;1.70;;;18.30;99.90;;;;;;5075460;28;20517;-76
2023/08/10 07:52:50;;;;;;;2.23;2.13;;;18.70;99.90;;;;;;5080016;28;20934;-76
2023/08/10 07:55:17;;;;;;;1.70;1.60;;;18.90;99.90;;;;;;5067135;28;20455;-78
2023/08/10 07:57:44;;;;;;;2.37;1.37;;;18.90;99.90;;;;;;5085057;28;20448;-76
2023/08/10 08:00:12;;;;;;;1.77;1.50;;;18.60;99.90;;;;;;5083288;28;20551;-75
2023/08/10 08:02:40;;;;;;;2.50;1.37;;;18.20;99.90;;;;;;5086701;28;20441;-75
2023/08/10 08:05:08;;;;;;;1.63;1.50;;;17.80;99.90;;;;;;5085114;28;20491;-77
2023/08/10 08:07:35;;;;;;;1.90;1.80;;;18.30;99.90;;;;;;5080446;28;21213;-78
2023/08/10 08:10:03;;;;;;;1.17;1.07;;;18.40;99.90;;;;;;5086289;28;20443;-77
2023/08/10 08:12:32;;;;;;;2.37;2.13;;;18.70;99.90;;;;;;5081279;28;20468;-78
2023/08/10 08:14:59;;;;;;;3.10;1.90;;;18.80;99.90;;;;;;5081688;28;20488;-79
2023/08/10 08:17:25;;;;;;;1.87;1.77;;;18.80;99.90;;;;;;5084450;28;20443;-75
2023/08/10 08:19:57;;;;;;;1.80;1.70;;;18.20;99.90;;;;;;5085848;28;20476;-78
2023/08/10 08:22:24;;;;;;;1.77;1.67;;;18.10;99.90;;;;;;5085012;28;20459;-77
2023/08/10 08:24:52;;;;;;;2.60;2.33;;;18.40;99.90;;;;;;5086336;28;20443;-77
2023/08/10 08:27:19;;;;;;;1.67;1.57;;;18.60;99.90;;;;;;5081570;28;20444;-78
2023/08/10 08:29:46;;;;;;;2.47;1.57;;;18.70;99.90;;;;;;5085422;28;20531;-78
2023/08/10 08:32:13;;;;;;;3.10;1.87;;;19.00;99.90;;;;;;5084323;28;20562;-77
2023/08/10 08:34:40;;;;;;;1.33;1.23;;;19.00;99.90;;;;;;5085190;28;20869;-76
2023/08/10 08:37:08;;;;;;;1.63;1.50;;;19.10;99.90;;;;;;5085498;28;20464;-77
2023/08/10 08:39:35;;;;;;;3.23;1.57;;;19.10;99.90;;;;;;5080132;28;20839;-79
2023/08/10 08:42:03;;;;;;;2.00;1.60;;;19.00;99.90;;;;;;5079710;28;20573;-75
2023/08/10 08:44:30;;;;;;;1.30;1.20;;;19.10;99.90;;;;;;5082547;28;20531;-76
2023/08/10 08:46:57;;;;;;;1.43;1.33;;;19.40;99.90;;;;;;5077675;28;20572;-79
2023/08/10 08:49:25;;;;;;;1.77;1.63;;;19.40;99.90;;;;;;5077949;28;20446;-77
2023/08/10 08:51:52;;;;;;;1.50;1.40;;;19.40;99.90;;;;;;5080422;28;20466;-77
2023/08/10 08:54:22;;;;;;;1.37;1.23;;;19.30;99.90;;;;;;5082177;28;20452;-76
2023/08/10 08:56:49;;;;;;;1.33;1.23;;;19.50;99.90;;;;;;5080358;28;20432;-75
2023/08/10 08:59:17;;;;;;;1.53;1.43;;;19.60;99.90;;;;;;5088203;28;21013;-79
2023/08/10 09:01:47;;;;;;;2.10;1.53;;;19.60;99.90;;;;;;5089351;28;20886;-76
2023/08/10 09:04:14;;;;;;;1.53;1.43;;;18.70;99.90;;;;;;5088797;28;20526;-78
2023/08/10 09:06:41;;;;;;;1.50;1.40;;;18.30;99.90;;;;;;5085857;28;20515;-77
2023/08/10 09:09:08;;;;;;;1.40;1.30;;;18.90;99.90;;;;;;5088555;28;20440;-79
2023/08/10 09:11:36;;;;;;;1.77;1.67;;;19.30;99.90;;;;;;5088894;28;20447;-78
2023/08/10 09:14:08;;;;;;;1.70;1.60;;;19.60;99.90;;;;;;5086028;28;21212;-76
2023/08/10 09:16:37;;;;;;;1.53;1.30;;;20.00;99.90;;;;;;5087751;28;20451;-77
2023/08/10 09:19:04;;;;;;;1.60;1.50;;;19.80;99.90;;;;;;5085588;28;20488;-79
2023/08/10 09:21:33;;;;;;;1.50;1.40;;;19.70;99.90;;;;;;5085122;28;20567;-77
2023/08/10 09:24:00;;;;;;;3.13;1.53;;;19.70;99.90;;;;;;5086202;28;20439;-78
2023/08/10 09:26:27;;;;;;;1.70;1.20;;;19.80;99.90;;;;;;5080502;28;20672;-78
2023/08/10 09:28:56;;;;;;;2.30;2.10;;;20.10;99.90;;;;;;5086503;28;20441;-76
2023/08/10 09:31:25;;;;;;;0.87;0.80;;;19.90;99.90;;;;;;5079401;28;20872;-76
2023/08/10 09:33:56;;;;;;;1.37;1.03;;;20.20;99.90;;;;;;5081491;28;20525;-78
2023/08/10 09:36:25;;;;;;;1.43;1.20;;;19.80;99.90;;;;;;5083192;28;21049;-78
2023/08/10 09:38:54;;;;;;;1.83;1.20;;;20.50;99.90;;;;;;5079335;28;20516;-79
2023/08/10 09:41:22;;;;;;;1.10;0.90;;;20.40;99.90;;;;;;5081056;28;20473;-78
2023/08/10 09:43:49;;;;;;;2.30;0.90;;;20.70;99.90;;;;;;5080686;28;21169;-77
2023/08/10 09:46:18;;;;;;;1.10;0.60;;;20.90;99.90;;;;;;5083518;28;20513;-78
2023/08/10 09:48:47;;;;;;;1.43;1.10;;;20.90;99.90;;;;;;5080731;28;20513;-76
2023/08/10 09:51:15;;;;;;;1.57;1.07;;;21.00;99.90;;;;;;5077241;28;20537;-77
2023/08/10 09:53:42;;;;;;;1.43;0.80;;;20.90;99.90;;;;;;5079190;28;20447;-77
2023/08/10 09:56:09;;;;;;;1.50;0.90;;;20.60;99.90;;;;;;5073564;28;20506;-75
2023/08/10 09:58:37;;;;;;;1.80;1.00;;;20.40;99.90;;;;;;5087623;28;20455;-77
2023/08/10 10:01:05;;;;;;;1.83;1.03;;;20.00;99.90;;;;;;5083932;28;20524;-76
2023/08/10 10:03:33;;;;;;;1.93;1.30;;;19.70;99.90;;;;;;5088526;28;20441;-77
2023/08/10 10:06:01;;;;;;;1.37;0.90;;;19.90;99.90;;;;;;5086135;28;21272;-76
2023/08/10 10:08:29;;;;;;;1.27;1.07;;;20.20;99.90;;;;;;5085721;28;20788;-77
2023/08/10 10:10:59;;;;;;;1.10;0.90;;;20.40;99.90;;;;;;5088493;28;21149;-79
2023/08/10 10:13:27;;;;;;;1.27;0.97;;;20.80;99.90;;;;;;5086444;28;20896;-76
2023/08/10 10:15:55;;;;;;;1.77;1.03;;;21.00;99.90;;;;;;5088310;28;20459;-76
2023/08/10 10:18:23;;;;;;;1.13;1.00;;;21.10;99.90;;;;;;5088211;28;20508;-76
2023/08/10 10:20:52;;;;;;;0.80;0.80;;;21.00;99.90;;;;;;5080840;28;20581;-78
2023/08/10 10:23:20;;;;;;;1.00;0.90;;;20.90;99.90;;;;;;5086963;28;20462;-76
2023/08/10 10:25:58;;;;;;;2.13;1.97;;;21.10;99.90;;;;;;5084242;28;20531;-76
2023/08/10 10:28:26;;;;;;;1.00;0.90;;;21.00;99.90;;;;;;5083894;28;20490;-77
2023/08/10 10:30:57;;;;;;;1.17;0.60;;;21.20;99.90;;;;;;5087534;28;20447;-76
2023/08/10 10:33:25;;;;;;;0.80;0.73;;;20.70;99.90;;;;;;5085887;28;20479;-77
2023/08/10 10:36:14;;;;;;;0.67;0.67;;;20.10;99.90;;;;;;5088813;28;20447;-76
2023/08/10 10:38:46;;;;;;;1.13;0.80;;;20.20;99.90;;;;;;5085269;28;20497;-75
2023/08/10 10:41:16;;;;;;;0.90;0.70;;;20.40;99.90;;;;;;5087494;28;20574;-77
2023/08/10 10:43:45;;;;;;;1.17;0.80;;;20.70;99.90;;;;;;5087450;28;20446;-77
2023/08/10 10:46:37;;;;;;;0.60;0.57;;;20.60;99.90;;;;;;5086185;28;20502;-76
2023/08/10 10:49:07;;;;;;;1.07;0.87;;;20.80;99.90;;;;;;5084967;28;20544;-75
2023/08/10 10:51:48;;;;;;;0.67;0.60;;;21.00;99.90;;;;;;5088354;28;20869;-76
2023/08/10 10:54:15;;;;;;;0.70;0.50;;;21.10;99.90;;;;;;5085461;28;20491;-77
2023/08/10 10:56:43;;;;;;;1.17;0.60;;;20.70;99.90;;;;;;5081830;28;20513;-77
2023/08/10 10:59:10;;;;;;;0.83;0.77;;;21.00;99.90;;;;;;5086804;28;20982;-76
2023/08/10 11:01:37;;;;;;;0.90;0.70;;;21.10;99.90;;;;;;5077620;28;20526;-75
2023/08/10 11:04:07;;;;;;;1.13;0.60;;;21.10;99.90;;;;;;5085240;28;20449;-76
2023/08/10 11:06:38;;;;;;;0.90;0.60;;;21.20;99.90;;;;;;5084273;28;20855;-78
2023/08/10 11:09:07;;;;;;;2.40;0.70;;;21.10;99.90;;;;;;5084758;28;21040;-77
2023/08/10 11:11:36;;;;;;;0.70;0.70;;;21.20;99.90;;;;;;5086474;28;20466;-79
2023/08/10 11:14:03;;;;;;;1.17;1.00;;;21.30;99.50;;;;;;5085958;28;20963;-78
2023/08/10 11:16:41;;;;;;;0.80;0.70;;;21.40;99.60;;;;;;5087377;28;20487;-75
2023/08/10 11:19:10;;;;;;;1.00;0.90;;;21.50;99.90;;;;;;5084697;28;20466;-77
2023/08/10 11:21:42;;;;;;;0.80;0.80;;;21.20;99.90;;;;;;5087220;28;20564;-75
2023/08/10 11:24:09;;;;;;;1.00;0.83;;;21.20;99.90;;;;;;5085774;28;20938;-77
2023/08/10 11:26:36;;;;;;;0.60;0.60;;;21.30;99.90;;;;;;5084943;28;20463;-78
2023/08/10 11:29:04;;;;;;;1.10;0.77;;;21.10;99.90;;;;;;5086021;28;20519;-79
2023/08/10 11:31:38;;;;;;;0.70;0.57;;;20.80;99.90;;;;;;5083248;28;20524;-77
2023/08/10 11:34:21;;;;;;;0.60;0.50;;;20.90;99.70;;;;;;5079299;28;20463;-78
2023/08/10 11:36:50;;;;;;;0.60;0.60;;;21.30;98.50;;;;;;5084697;28;20449;-76
2023/08/10 11:39:17;;;;;;;0.90;0.60;;;21.60;97.50;;;;;;5077514;28;20553;-79
2023/08/10 11:41:46;;;;;;;0.80;0.50;;;21.60;98.40;;;;;;5079618;28;20479;-78
2023/08/10 11:44:23;;;;;;;1.00;1.00;;;22.10;99.30;;;;;;5077880;28;20532;-74
2023/08/10 11:46:50;;;;;;;0.70;0.70;;;22.30;98.90;;;;;;5074030;28;20466;-74
2023/08/10 11:49:17;;;;;;;0.50;0.47;;;22.00;98.70;;;;;;5083340;28;20514;-77
2023/08/10 11:51:44;;;;;;;0.63;0.60;;;21.80;98.10;;;;;;5081354;28;21044;-78
2023/08/10 11:54:12;;;;;;;0.63;0.60;;;21.40;94.40;;;;;;5075169;28;20455;-75
2023/08/10 11:56:46;;;;;;;0.77;0.57;;;21.70;96.90;;;;;;5082309;28;20933;-78
2023/08/10 11:59:14;;;;;;;0.70;0.70;;;22.20;99.00;;;;;;5081189;28;20514;-76
2023/08/10 12:01:51;;;;;;;1.10;1.00;;;21.70;97.70;;;;;;5073365;28;20491;-77
2023/08/10 12:04:18;;;;;;;0.70;0.70;;;21.90;96.30;;;;;;5070892;28;20919;-76
2023/08/10 12:06:45;;;;;;;0.70;0.70;;;21.40;94.70;;;;;;5071863;28;21029;-76
2023/08/10 12:09:14;;;;;;;1.10;0.73;;;21.30;94.60;;;;;;5080847;28;20458;-79
2023/08/10 12:11:42;;;;;;;1.00;0.90;;;20.80;97.60;;;;;;5074553;28;20953;-78
2023/08/10 12:14:09;;;;;;;0.70;0.50;;;20.40;96.80;;;;;;5077225;28;20482;-78
2023/08/10 12:16:36;;;;;;;1.40;0.60;;;20.30;97.70;;;;;;5077100;28;20521;-77
2023/08/10 12:19:03;;;;;;;0.90;0.57;;;20.80;97.10;;;;;;5079905;28;21297;-77
2023/08/10 12:21:31;;;;;;;1.00;0.70;;;21.40;97.50;;;;;;5083131;28;20537;-78
2023/08/10 12:23:57;;;;;;;1.33;1.03;;;21.90;91.80;;;;;;5072995;28;21013;-79
2023/08/10 12:26:26;;;;;;;1.00;0.80;;;22.20;93.80;;;;;;5078572;28;20444;-77
2023/08/10 12:28:53;;;;;;;1.63;1.27;;;22.00;95.90;;;;;;5081740;28;20460;-76
2023/08/10 12:31:20;;;;;;;2.00;0.63;;;22.10;93.90;;;;;;5078340;28;21031;-77
2023/08/10 12:33:50;;;;;;;1.63;1.07;;;22.20;95.60;;;;;;5079973;28;20550;-78
2023/08/10 12:36:17;;;;;;;1.33;0.60;;;22.20;94.70;;;;;;5074575;28;20537;-78
2023/08/10 12:38:44;;;;;;;1.53;0.87;;;22.60;93.40;;;;;;5072789;28;20467;-78
2023/08/10 12:41:11;;;;;;;0.70;0.70;;;22.20;93.10;;;;;;5080286;28;20520;-79
2023/08/10 12:43:40;;;;;;;0.77;0.77;;;21.50;94.80;;;;;;5078011;28;20455;-79
2023/08/10 12:46:07;;;;;;;0.90;0.77;;;21.60;94.40;;;;;;5080160;28;20946;-79
2023/08/10 12:48:34;;;;;;;0.60;0.60;;;21.70;92.10;;;;;;5072402;28;20452;-79
2023/08/10 12:51:01;;;;;;;1.00;0.60;;;21.80;92.60;;;;;;5080114;28;20919;-79
2023/08/10 12:53:28;;;;;;;1.83;0.67;;;21.90;92.50;;;;;;5078130;28;20946;-77